sensor_id;sensor_type;location;lat;lon;timestamp;P1;durP1;ratioP1;P2;durP2;ratioP2
84082;SDS011;74174;52.224;6.878;2023-11-21T00:01:58;30.73;;;11.50;;
84082;SDS011;74174;52.224;6.878;2023-11-21T00:04:24;32.70;;;12.13;;
84082;SDS011;74174;52.224;6.878;2023-11-21T00:06:50;33.55;;;12.85;;
84082;SDS011;74174;52.224;6.878;2023-11-21T00:09:16;39.22;;;13.50;;
84082;SDS011;74174;52.224;6.878;2023-11-21T00:11:42;33.55;;;12.63;;
84082;SDS011;74174;52.224;6.878;2023-11-21T00:14:08;39.53;;;13.27;;
84082;SDS011;74174;52.224;6.878;2023-11-21T00:16:34;47.53;;;14.25;;
84082;SDS011;74174;52.224;6.878;2023-11-21T00:18:59;50.92;;;14.10;;
84082;SDS011;74174;52.224;6.878;2023-11-21T00:21:25;41.83;;;13.88;;
84082;SDS011;74174;52.224;6.878;2023-11-21T00:23:50;41.50;;;12.32;;
84082;SDS011;74174;52.224;6.878;2023-11-21T00:26:16;43.65;;;13.85;;
84082;SDS011;74174;52.224;6.878;2023-11-21T00:28:41;47.83;;;13.80;;
84082;SDS011;74174;52.224;6.878;2023-11-21T00:31:07;46.25;;;14.18;;
84082;SDS011;74174;52.224;6.878;2023-11-21T00:33:32;50.83;;;14.65;;
84082;SDS011;74174;52.224;6.878;2023-11-21T00:35:58;45.28;;;13.50;;
84082;SDS011;74174;52.224;6.878;2023-11-21T00:38:23;47.22;;;14.38;;
84082;SDS011;74174;52.224;6.878;2023-11-21T00:40:49;41.38;;;13.43;;
84082;SDS011;74174;52.224;6.878;2023-11-21T00:43:14;44.10;;;12.23;;
84082;SDS011;74174;52.224;6.878;2023-11-21T00:45:40;43.45;;;13.95;;
84082;SDS011;74174;52.224;6.878;2023-11-21T00:48:05;41.70;;;13.43;;
84082;SDS011;74174;52.224;6.878;2023-11-21T00:50:33;41.00;;;12.75;;
84082;SDS011;74174;52.224;6.878;2023-11-21T00:52:58;39.08;;;12.32;;
84082;SDS011;74174;52.224;6.878;2023-11-21T00:55:24;44.28;;;14.35;;
84082;SDS011;74174;52.224;6.878;2023-11-21T00:57:50;40.88;;;12.98;;
84082;SDS011;74174;52.224;6.878;2023-11-21T01:00:15;42.10;;;14.07;;
84082;SDS011;74174;52.224;6.878;2023-11-21T01:02:45;37.28;;;13.30;;
84082;SDS011;74174;52.224;6.878;2023-11-21T01:05:12;36.97;;;13.10;;
84082;SDS011;74174;52.224;6.878;2023-11-21T01:07:38;44.42;;;13.40;;
84082;SDS011;74174;52.224;6.878;2023-11-21T01:10:03;39.33;;;13.20;;
84082;SDS011;74174;52.224;6.878;2023-11-21T01:12:32;46.03;;;16.10;;
84082;SDS011;74174;52.224;6.878;2023-11-21T01:14:59;47.90;;;14.45;;
84082;SDS011;74174;52.224;6.878;2023-11-21T01:17:25;48.72;;;13.82;;
84082;SDS011;74174;52.224;6.878;2023-11-21T01:19:51;42.30;;;13.57;;
84082;SDS011;74174;52.224;6.878;2023-11-21T01:22:16;40.35;;;15.00;;
84082;SDS011;74174;52.224;6.878;2023-11-21T01:24:42;38.13;;;14.50;;
84082;SDS011;74174;52.224;6.878;2023-11-21T01:27:08;39.22;;;12.65;;
84082;SDS011;74174;52.224;6.878;2023-11-21T01:29:33;40.35;;;13.07;;
84082;SDS011;74174;52.224;6.878;2023-11-21T01:32:00;46.95;;;14.50;;
84082;SDS011;74174;52.224;6.878;2023-11-21T01:34:27;44.75;;;13.85;;
84082;SDS011;74174;52.224;6.878;2023-11-21T01:36:52;33.63;;;12.27;;
84082;SDS011;74174;52.224;6.878;2023-11-21T01:39:18;37.17;;;14.52;;
84082;SDS011;74174;52.224;6.878;2023-11-21T01:41:48;38.10;;;13.40;;
84082;SDS011;74174;52.224;6.878;2023-11-21T01:44:15;40.00;;;13.80;;
84082;SDS011;74174;52.224;6.878;2023-11-21T01:46:42;46.47;;;14.68;;
84082;SDS011;74174;52.224;6.878;2023-11-21T01:49:07;43.88;;;14.65;;
84082;SDS011;74174;52.224;6.878;2023-11-21T01:51:38;39.22;;;13.45;;
84082;SDS011;74174;52.224;6.878;2023-11-21T01:54:04;40.42;;;14.60;;
84082;SDS011;74174;52.224;6.878;2023-11-21T01:56:30;40.03;;;15.30;;
84082;SDS011;74174;52.224;6.878;2023-11-21T01:58:56;40.83;;;14.80;;
84082;SDS011;74174;52.224;6.878;2023-11-21T02:01:22;35.13;;;14.45;;
84082;SDS011;74174;52.224;6.878;2023-11-21T02:03:48;46.65;;;15.77;;
84082;SDS011;74174;52.224;6.878;2023-11-21T02:06:13;45.10;;;16.42;;
84082;SDS011;74174;52.224;6.878;2023-11-21T02:08:38;47.60;;;16.73;;
84082;SDS011;74174;52.224;6.878;2023-11-21T02:11:04;43.05;;;15.63;;
84082;SDS011;74174;52.224;6.878;2023-11-21T02:13:30;43.83;;;16.73;;
84082;SDS011;74174;52.224;6.878;2023-11-21T02:15:56;45.90;;;16.33;;
84082;SDS011;74174;52.224;6.878;2023-11-21T02:18:23;49.63;;;18.00;;
84082;SDS011;74174;52.224;6.878;2023-11-21T02:20:48;54.33;;;17.73;;
84082;SDS011;74174;52.224;6.878;2023-11-21T02:23:14;47.25;;;15.68;;
84082;SDS011;74174;52.224;6.878;2023-11-21T02:25:39;49.47;;;16.48;;
84082;SDS011;74174;52.224;6.878;2023-11-21T02:28:07;50.42;;;17.10;;
84082;SDS011;74174;52.224;6.878;2023-11-21T02:30:33;46.28;;;16.10;;
84082;SDS011;74174;52.224;6.878;2023-11-21T02:32:59;51.38;;;16.70;;
84082;SDS011;74174;52.224;6.878;2023-11-21T02:35:25;54.42;;;17.92;;
84082;SDS011;74174;52.224;6.878;2023-11-21T02:37:51;49.33;;;16.75;;
84082;SDS011;74174;52.224;6.878;2023-11-21T02:40:17;60.95;;;18.88;;
84082;SDS011;74174;52.224;6.878;2023-11-21T02:42:52;49.80;;;16.60;;
84082;SDS011;74174;52.224;6.878;2023-11-21T02:45:18;49.28;;;17.25;;
84082;SDS011;74174;52.224;6.878;2023-11-21T02:47:45;48.63;;;16.98;;
84082;SDS011;74174;52.224;6.878;2023-11-21T02:50:11;50.00;;;16.95;;
84082;SDS011;74174;52.224;6.878;2023-11-21T02:52:37;53.42;;;15.55;;
84082;SDS011;74174;52.224;6.878;2023-11-21T02:55:03;49.15;;;17.30;;
84082;SDS011;74174;52.224;6.878;2023-11-21T02:57:29;46.33;;;16.95;;
84082;SDS011;74174;52.224;6.878;2023-11-21T02:59:55;47.78;;;16.05;;
84082;SDS011;74174;52.224;6.878;2023-11-21T03:02:20;49.75;;;16.45;;
84082;SDS011;74174;52.224;6.878;2023-11-21T03:04:47;46.58;;;16.35;;
84082;SDS011;74174;52.224;6.878;2023-11-21T03:07:14;50.08;;;18.02;;
84082;SDS011;74174;52.224;6.878;2023-11-21T03:09:40;42.33;;;15.82;;
84082;SDS011;74174;52.224;6.878;2023-11-21T03:12:05;47.50;;;16.92;;
84082;SDS011;74174;52.224;6.878;2023-11-21T03:14:31;47.38;;;17.00;;
84082;SDS011;74174;52.224;6.878;2023-11-21T03:16:56;47.03;;;17.42;;
84082;SDS011;74174;52.224;6.878;2023-11-21T03:19:22;55.65;;;17.95;;
84082;SDS011;74174;52.224;6.878;2023-11-21T03:21:48;46.30;;;16.75;;
84082;SDS011;74174;52.224;6.878;2023-11-21T03:24:13;51.28;;;16.88;;
84082;SDS011;74174;52.224;6.878;2023-11-21T03:26:44;45.03;;;15.85;;
84082;SDS011;74174;52.224;6.878;2023-11-21T03:29:09;51.03;;;17.52;;
84082;SDS011;74174;52.224;6.878;2023-11-21T03:31:35;48.13;;;16.67;;
84082;SDS011;74174;52.224;6.878;2023-11-21T03:34:01;45.58;;;16.33;;
84082;SDS011;74174;52.224;6.878;2023-11-21T03:36:26;54.15;;;17.83;;
84082;SDS011;74174;52.224;6.878;2023-11-21T03:38:52;54.38;;;17.50;;
84082;SDS011;74174;52.224;6.878;2023-11-21T03:41:17;49.47;;;15.90;;
84082;SDS011;74174;52.224;6.878;2023-11-21T03:43:43;52.70;;;16.73;;
84082;SDS011;74174;52.224;6.878;2023-11-21T03:46:08;48.60;;;16.17;;
84082;SDS011;74174;52.224;6.878;2023-11-21T03:48:35;48.15;;;17.10;;
84082;SDS011;74174;52.224;6.878;2023-11-21T03:51:00;50.08;;;17.50;;
84082;SDS011;74174;52.224;6.878;2023-11-21T03:53:25;56.53;;;18.52;;
84082;SDS011;74174;52.224;6.878;2023-11-21T03:55:51;53.60;;;17.77;;
84082;SDS011;74174;52.224;6.878;2023-11-21T03:58:16;51.45;;;18.75;;
84082;SDS011;74174;52.224;6.878;2023-11-21T04:00:42;52.78;;;18.27;;
84082;SDS011;74174;52.224;6.878;2023-11-21T04:03:07;56.10;;;16.92;;
84082;SDS011;74174;52.224;6.878;2023-11-21T04:05:32;60.33;;;18.42;;
84082;SDS011;74174;52.224;6.878;2023-11-21T04:07:58;52.40;;;18.50;;
84082;SDS011;74174;52.224;6.878;2023-11-21T04:10:23;52.15;;;18.05;;
84082;SDS011;74174;52.224;6.878;2023-11-21T04:12:49;60.10;;;18.05;;
84082;SDS011;74174;52.224;6.878;2023-11-21T04:15:14;54.13;;;18.80;;
84082;SDS011;74174;52.224;6.878;2023-11-21T04:17:40;52.47;;;17.00;;
84082;SDS011;74174;52.224;6.878;2023-11-21T04:20:06;51.92;;;18.35;;
84082;SDS011;74174;52.224;6.878;2023-11-21T04:22:41;51.72;;;18.02;;
84082;SDS011;74174;52.224;6.878;2023-11-21T04:25:13;50.80;;;16.50;;
84082;SDS011;74174;52.224;6.878;2023-11-21T04:30:05;47.88;;;17.20;;
84082;SDS011;74174;52.224;6.878;2023-11-21T04:32:31;57.17;;;17.70;;
84082;SDS011;74174;52.224;6.878;2023-11-21T04:34:57;49.13;;;17.35;;
84082;SDS011;74174;52.224;6.878;2023-11-21T04:37:22;47.67;;;16.25;;
84082;SDS011;74174;52.224;6.878;2023-11-21T04:39:48;48.13;;;16.42;;
84082;SDS011;74174;52.224;6.878;2023-11-21T04:42:14;51.05;;;17.65;;
84082;SDS011;74174;52.224;6.878;2023-11-21T04:44:39;45.47;;;15.82;;
84082;SDS011;74174;52.224;6.878;2023-11-21T04:47:06;50.85;;;17.45;;
84082;SDS011;74174;52.224;6.878;2023-11-21T04:49:32;49.30;;;17.17;;
84082;SDS011;74174;52.224;6.878;2023-11-21T04:51:58;50.10;;;16.15;;
84082;SDS011;74174;52.224;6.878;2023-11-21T04:54:23;47.13;;;15.98;;
84082;SDS011;74174;52.224;6.878;2023-11-21T04:56:48;52.30;;;16.95;;
84082;SDS011;74174;52.224;6.878;2023-11-21T04:59:14;58.15;;;18.42;;
84082;SDS011;74174;52.224;6.878;2023-11-21T05:01:39;55.95;;;16.40;;
84082;SDS011;74174;52.224;6.878;2023-11-21T05:04:05;49.83;;;15.57;;
84082;SDS011;74174;52.224;6.878;2023-11-21T05:06:31;51.15;;;15.93;;
84082;SDS011;74174;52.224;6.878;2023-11-21T05:08:57;58.97;;;16.27;;
84082;SDS011;74174;52.224;6.878;2023-11-21T05:11:24;59.83;;;16.27;;
84082;SDS011;74174;52.224;6.878;2023-11-21T05:13:50;53.13;;;16.40;;
84082;SDS011;74174;52.224;6.878;2023-11-21T05:16:16;65.47;;;16.70;;
84082;SDS011;74174;52.224;6.878;2023-11-21T05:18:41;52.47;;;15.10;;
84082;SDS011;74174;52.224;6.878;2023-11-21T05:21:07;54.25;;;16.65;;
84082;SDS011;74174;52.224;6.878;2023-11-21T05:23:32;75.03;;;17.80;;
84082;SDS011;74174;52.224;6.878;2023-11-21T05:25:59;61.70;;;17.08;;
84082;SDS011;74174;52.224;6.878;2023-11-21T05:28:24;46.45;;;16.65;;
84082;SDS011;74174;52.224;6.878;2023-11-21T05:30:50;80.47;;;17.48;;
84082;SDS011;74174;52.224;6.878;2023-11-21T05:33:16;83.63;;;18.50;;
84082;SDS011;74174;52.224;6.878;2023-11-21T05:35:41;63.40;;;17.42;;
84082;SDS011;74174;52.224;6.878;2023-11-21T05:38:06;52.90;;;16.83;;
84082;SDS011;74174;52.224;6.878;2023-11-21T05:40:32;64.65;;;17.42;;
84082;SDS011;74174;52.224;6.878;2023-11-21T05:42:58;88.88;;;18.63;;
84082;SDS011;74174;52.224;6.878;2023-11-21T05:45:24;86.00;;;18.33;;
84082;SDS011;74174;52.224;6.878;2023-11-21T05:47:49;81.82;;;19.08;;
84082;SDS011;74174;52.224;6.878;2023-11-21T05:50:16;67.65;;;17.95;;
84082;SDS011;74174;52.224;6.878;2023-11-21T05:52:42;90.32;;;17.77;;
84082;SDS011;74174;52.224;6.878;2023-11-21T05:55:09;64.40;;;16.67;;
84082;SDS011;74174;52.224;6.878;2023-11-21T05:57:35;89.25;;;18.23;;
84082;SDS011;74174;52.224;6.878;2023-11-21T06:00:04;75.72;;;17.52;;
84082;SDS011;74174;52.224;6.878;2023-11-21T06:02:36;66.63;;;16.33;;
84082;SDS011;74174;52.224;6.878;2023-11-21T06:05:05;92.20;;;18.65;;
84082;SDS011;74174;52.224;6.878;2023-11-21T06:07:31;61.92;;;19.75;;
84082;SDS011;74174;52.224;6.878;2023-11-21T06:09:57;65.25;;;16.80;;
84082;SDS011;74174;52.224;6.878;2023-11-21T06:12:22;50.40;;;17.17;;
84082;SDS011;74174;52.224;6.878;2023-11-21T06:14:48;43.42;;;15.30;;
84082;SDS011;74174;52.224;6.878;2023-11-21T06:17:13;42.38;;;13.88;;
84082;SDS011;74174;52.224;6.878;2023-11-21T06:19:39;36.38;;;14.60;;
84082;SDS011;74174;52.224;6.878;2023-11-21T06:22:05;47.45;;;16.13;;
84082;SDS011;74174;52.224;6.878;2023-11-21T06:24:31;45.20;;;15.52;;
84082;SDS011;74174;52.224;6.878;2023-11-21T06:26:56;38.55;;;15.02;;
84082;SDS011;74174;52.224;6.878;2023-11-21T06:29:22;40.90;;;14.73;;
84082;SDS011;74174;52.224;6.878;2023-11-21T06:31:48;43.55;;;13.65;;
84082;SDS011;74174;52.224;6.878;2023-11-21T06:34:13;46.17;;;15.02;;
84082;SDS011;74174;52.224;6.878;2023-11-21T06:36:39;50.38;;;15.00;;
84082;SDS011;74174;52.224;6.878;2023-11-21T06:39:04;42.53;;;15.73;;
84082;SDS011;74174;52.224;6.878;2023-11-21T06:41:33;54.45;;;16.30;;
84082;SDS011;74174;52.224;6.878;2023-11-21T06:43:59;38.88;;;14.68;;
84082;SDS011;74174;52.224;6.878;2023-11-21T06:46:24;41.75;;;15.60;;
84082;SDS011;74174;52.224;6.878;2023-11-21T06:48:49;42.50;;;15.23;;
84082;SDS011;74174;52.224;6.878;2023-11-21T06:51:15;36.72;;;15.82;;
84082;SDS011;74174;52.224;6.878;2023-11-21T06:53:41;40.80;;;16.85;;
84082;SDS011;74174;52.224;6.878;2023-11-21T06:56:28;43.70;;;16.02;;
84082;SDS011;74174;52.224;6.878;2023-11-21T06:58:52;39.33;;;15.10;;
84082;SDS011;74174;52.224;6.878;2023-11-21T07:01:20;44.15;;;17.50;;
84082;SDS011;74174;52.224;6.878;2023-11-21T07:03:46;54.25;;;19.08;;
84082;SDS011;74174;52.224;6.878;2023-11-21T07:06:11;49.10;;;19.38;;
84082;SDS011;74174;52.224;6.878;2023-11-21T07:08:37;44.38;;;18.65;;
84082;SDS011;74174;52.224;6.878;2023-11-21T07:11:03;43.45;;;17.15;;
84082;SDS011;74174;52.224;6.878;2023-11-21T07:13:29;48.00;;;18.90;;
84082;SDS011;74174;52.224;6.878;2023-11-21T07:15:55;46.50;;;18.67;;
84082;SDS011;74174;52.224;6.878;2023-11-21T07:18:20;45.80;;;16.15;;
84082;SDS011;74174;52.224;6.878;2023-11-21T07:20:46;46.20;;;16.02;;
84082;SDS011;74174;52.224;6.878;2023-11-21T07:23:11;38.78;;;15.18;;
84082;SDS011;74174;52.224;6.878;2023-11-21T07:25:37;39.40;;;15.45;;
84082;SDS011;74174;52.224;6.878;2023-11-21T07:28:02;37.92;;;15.50;;
84082;SDS011;74174;52.224;6.878;2023-11-21T07:30:28;43.55;;;15.20;;
84082;SDS011;74174;52.224;6.878;2023-11-21T07:32:53;40.15;;;15.32;;
84082;SDS011;74174;52.224;6.878;2023-11-21T07:35:18;42.22;;;15.95;;
84082;SDS011;74174;52.224;6.878;2023-11-21T07:37:44;42.40;;;16.25;;
84082;SDS011;74174;52.224;6.878;2023-11-21T07:40:09;45.42;;;15.38;;
84082;SDS011;74174;52.224;6.878;2023-11-21T07:42:36;52.28;;;16.73;;
84082;SDS011;74174;52.224;6.878;2023-11-21T07:45:02;49.53;;;16.58;;
84082;SDS011;74174;52.224;6.878;2023-11-21T07:47:28;47.30;;;17.88;;
84082;SDS011;74174;52.224;6.878;2023-11-21T07:49:54;43.63;;;15.63;;
84082;SDS011;74174;52.224;6.878;2023-11-21T07:52:21;47.38;;;15.82;;
84082;SDS011;74174;52.224;6.878;2023-11-21T07:54:47;50.70;;;15.85;;
84082;SDS011;74174;52.224;6.878;2023-11-21T07:57:12;48.58;;;15.50;;
84082;SDS011;74174;52.224;6.878;2023-11-21T07:59:40;48.65;;;17.25;;
84082;SDS011;74174;52.224;6.878;2023-11-21T08:02:06;54.42;;;15.77;;
84082;SDS011;74174;52.224;6.878;2023-11-21T08:04:32;62.60;;;16.35;;
84082;SDS011;74174;52.224;6.878;2023-11-21T08:06:57;63.80;;;17.70;;
84082;SDS011;74174;52.224;6.878;2023-11-21T08:09:23;56.17;;;16.77;;
84082;SDS011;74174;52.224;6.878;2023-11-21T08:11:49;57.17;;;18.25;;
84082;SDS011;74174;52.224;6.878;2023-11-21T08:14:14;59.15;;;17.08;;
84082;SDS011;74174;52.224;6.878;2023-11-21T08:16:40;76.25;;;18.70;;
84082;SDS011;74174;52.224;6.878;2023-11-21T08:19:06;65.65;;;17.92;;
84082;SDS011;74174;52.224;6.878;2023-11-21T08:21:33;90.88;;;18.40;;
84082;SDS011;74174;52.224;6.878;2023-11-21T08:23:59;75.50;;;18.38;;
84082;SDS011;74174;52.224;6.878;2023-11-21T08:26:25;67.50;;;18.55;;
84082;SDS011;74174;52.224;6.878;2023-11-21T08:28:50;62.85;;;18.05;;
84082;SDS011;74174;52.224;6.878;2023-11-21T08:31:22;63.70;;;19.35;;
84082;SDS011;74174;52.224;6.878;2023-11-21T08:33:49;77.93;;;19.48;;
84082;SDS011;74174;52.224;6.878;2023-11-21T08:36:14;71.10;;;18.17;;
84082;SDS011;74174;52.224;6.878;2023-11-21T08:38:40;65.63;;;17.40;;
84082;SDS011;74174;52.224;6.878;2023-11-21T08:41:06;70.68;;;16.50;;
84082;SDS011;74174;52.224;6.878;2023-11-21T08:43:35;62.20;;;16.85;;
84082;SDS011;74174;52.224;6.878;2023-11-21T08:46:04;66.25;;;18.35;;
84082;SDS011;74174;52.224;6.878;2023-11-21T08:48:34;57.38;;;17.30;;
84082;SDS011;74174;52.224;6.878;2023-11-21T08:51:01;48.25;;;17.25;;
84082;SDS011;74174;52.224;6.878;2023-11-21T08:53:26;50.30;;;17.00;;
84082;SDS011;74174;52.224;6.878;2023-11-21T08:55:52;51.80;;;16.75;;
84082;SDS011;74174;52.224;6.878;2023-11-21T08:58:18;49.67;;;18.10;;
84082;SDS011;74174;52.224;6.878;2023-11-21T09:00:44;42.60;;;15.68;;
84082;SDS011;74174;52.224;6.878;2023-11-21T09:03:11;43.15;;;16.27;;
84082;SDS011;74174;52.224;6.878;2023-11-21T09:05:37;42.92;;;15.77;;
84082;SDS011;74174;52.224;6.878;2023-11-21T09:08:04;31.58;;;13.30;;
84082;SDS011;74174;52.224;6.878;2023-11-21T09:10:29;27.08;;;12.02;;
84082;SDS011;74174;52.224;6.878;2023-11-21T09:12:56;34.15;;;14.88;;
84082;SDS011;74174;52.224;6.878;2023-11-21T09:15:21;30.40;;;13.00;;
84082;SDS011;74174;52.224;6.878;2023-11-21T09:17:47;25.23;;;11.38;;
84082;SDS011;74174;52.224;6.878;2023-11-21T09:20:13;29.10;;;11.82;;
84082;SDS011;74174;52.224;6.878;2023-11-21T09:22:40;28.80;;;11.43;;
84082;SDS011;74174;52.224;6.878;2023-11-21T09:25:05;24.50;;;10.80;;
84082;SDS011;74174;52.224;6.878;2023-11-21T09:27:33;28.33;;;12.02;;
84082;SDS011;74174;52.224;6.878;2023-11-21T09:29:59;29.67;;;12.00;;
84082;SDS011;74174;52.224;6.878;2023-11-21T09:32:24;27.08;;;11.07;;
84082;SDS011;74174;52.224;6.878;2023-11-21T09:34:50;28.77;;;11.20;;
84082;SDS011;74174;52.224;6.878;2023-11-21T09:37:16;28.38;;;11.10;;
84082;SDS011;74174;52.224;6.878;2023-11-21T09:39:41;25.85;;;10.23;;
84082;SDS011;74174;52.224;6.878;2023-11-21T09:42:15;25.40;;;10.48;;
84082;SDS011;74174;52.224;6.878;2023-11-21T09:44:56;29.02;;;10.93;;
84082;SDS011;74174;52.224;6.878;2023-11-21T09:47:26;29.25;;;11.85;;
84082;SDS011;74174;52.224;6.878;2023-11-21T09:49:52;32.05;;;12.70;;
84082;SDS011;74174;52.224;6.878;2023-11-21T09:52:22;24.45;;;10.73;;
84082;SDS011;74174;52.224;6.878;2023-11-21T09:54:50;28.83;;;11.82;;
84082;SDS011;74174;52.224;6.878;2023-11-21T09:57:24;29.70;;;12.40;;
84082;SDS011;74174;52.224;6.878;2023-11-21T09:59:50;28.65;;;12.32;;
84082;SDS011;74174;52.224;6.878;2023-11-21T10:02:19;30.50;;;13.50;;
84082;SDS011;74174;52.224;6.878;2023-11-21T10:04:47;26.30;;;10.05;;
84082;SDS011;74174;52.224;6.878;2023-11-21T10:07:13;26.58;;;9.27;;
84082;SDS011;74174;52.224;6.878;2023-11-21T10:09:42;27.92;;;10.02;;
84082;SDS011;74174;52.224;6.878;2023-11-21T10:12:08;23.77;;;9.25;;
84082;SDS011;74174;52.224;6.878;2023-11-21T10:14:37;27.27;;;9.27;;
84082;SDS011;74174;52.224;6.878;2023-11-21T10:17:08;23.65;;;8.88;;
84082;SDS011;74174;52.224;6.878;2023-11-21T10:19:37;26.30;;;9.50;;
84082;SDS011;74174;52.224;6.878;2023-11-21T10:22:04;22.70;;;9.18;;
84082;SDS011;74174;52.224;6.878;2023-11-21T10:24:32;25.45;;;10.13;;
84082;SDS011;74174;52.224;6.878;2023-11-21T10:26:58;24.15;;;9.05;;
84082;SDS011;74174;52.224;6.878;2023-11-21T10:29:23;28.52;;;11.05;;
84082;SDS011;74174;52.224;6.878;2023-11-21T10:31:49;24.33;;;9.55;;
84082;SDS011;74174;52.224;6.878;2023-11-21T10:34:16;23.98;;;9.32;;
84082;SDS011;74174;52.224;6.878;2023-11-21T10:36:43;24.77;;;9.65;;
84082;SDS011;74174;52.224;6.878;2023-11-21T10:39:09;27.67;;;9.98;;
84082;SDS011;74174;52.224;6.878;2023-11-21T10:41:43;23.02;;;9.68;;
84082;SDS011;74174;52.224;6.878;2023-11-21T10:44:10;23.88;;;9.18;;
84082;SDS011;74174;52.224;6.878;2023-11-21T10:46:36;28.70;;;10.50;;
84082;SDS011;74174;52.224;6.878;2023-11-21T10:49:03;28.58;;;11.00;;
84082;SDS011;74174;52.224;6.878;2023-11-21T10:51:29;25.88;;;10.30;;
84082;SDS011;74174;52.224;6.878;2023-11-21T10:53:54;25.05;;;9.35;;
84082;SDS011;74174;52.224;6.878;2023-11-21T10:56:23;19.15;;;8.25;;
84082;SDS011;74174;52.224;6.878;2023-11-21T10:58:49;24.25;;;9.68;;
84082;SDS011;74174;52.224;6.878;2023-11-21T11:01:19;22.17;;;8.38;;
84082;SDS011;74174;52.224;6.878;2023-11-21T11:03:49;19.88;;;8.20;;
84082;SDS011;74174;52.224;6.878;2023-11-21T11:06:16;23.83;;;9.15;;
84082;SDS011;74174;52.224;6.878;2023-11-21T11:08:42;20.67;;;7.82;;
84082;SDS011;74174;52.224;6.878;2023-11-21T11:11:09;20.92;;;8.15;;
84082;SDS011;74174;52.224;6.878;2023-11-21T11:13:35;22.38;;;7.70;;
84082;SDS011;74174;52.224;6.878;2023-11-21T11:16:03;24.23;;;7.60;;
84082;SDS011;74174;52.224;6.878;2023-11-21T11:18:32;22.63;;;8.02;;
84082;SDS011;74174;52.224;6.878;2023-11-21T11:21:07;23.40;;;9.25;;
84082;SDS011;74174;52.224;6.878;2023-11-21T11:34:47;23.33;;;9.07;;
84082;SDS011;74174;52.224;6.878;2023-11-21T11:37:19;24.95;;;9.85;;
84082;SDS011;74174;52.224;6.878;2023-11-21T11:39:45;25.50;;;9.80;;
84082;SDS011;74174;52.224;6.878;2023-11-21T11:42:15;29.50;;;10.18;;
84082;SDS011;74174;52.224;6.878;2023-11-21T11:47:19;22.55;;;8.52;;
84082;SDS011;74174;52.224;6.878;2023-11-21T11:49:57;20.90;;;8.50;;
84082;SDS011;74174;52.224;6.878;2023-11-21T11:52:41;23.10;;;7.95;;
84082;SDS011;74174;52.224;6.878;2023-11-21T11:55:17;25.60;;;8.85;;
84082;SDS011;74174;52.224;6.878;2023-11-21T11:57:45;20.35;;;8.05;;
84082;SDS011;74174;52.224;6.878;2023-11-21T12:00:21;22.98;;;8.23;;
84082;SDS011;74174;52.224;6.878;2023-11-21T12:03:00;22.27;;;7.20;;
84082;SDS011;74174;52.224;6.878;2023-11-21T12:05:33;21.20;;;8.25;;
84082;SDS011;74174;52.224;6.878;2023-11-21T12:08:03;21.85;;;7.68;;
84082;SDS011;74174;52.224;6.878;2023-11-21T12:10:31;22.52;;;8.30;;
84082;SDS011;74174;52.224;6.878;2023-11-21T12:12:58;23.13;;;7.97;;
84082;SDS011;74174;52.224;6.878;2023-11-21T12:15:32;25.83;;;9.13;;
84082;SDS011;74174;52.224;6.878;2023-11-21T12:17:58;22.23;;;8.10;;
84082;SDS011;74174;52.224;6.878;2023-11-21T12:20:24;24.30;;;8.77;;
84082;SDS011;74174;52.224;6.878;2023-11-21T12:22:52;25.13;;;8.77;;
84082;SDS011;74174;52.224;6.878;2023-11-21T12:25:19;23.60;;;8.05;;
84082;SDS011;74174;52.224;6.878;2023-11-21T12:27:46;25.65;;;9.77;;
84082;SDS011;74174;52.224;6.878;2023-11-21T12:30:14;27.33;;;9.85;;
84082;SDS011;74174;52.224;6.878;2023-11-21T12:32:42;27.48;;;9.43;;
84082;SDS011;74174;52.224;6.878;2023-11-21T12:35:09;26.98;;;8.75;;
84082;SDS011;74174;52.224;6.878;2023-11-21T12:37:39;23.85;;;9.98;;
84082;SDS011;74174;52.224;6.878;2023-11-21T12:40:06;21.73;;;9.02;;
84082;SDS011;74174;52.224;6.878;2023-11-21T12:42:46;25.60;;;10.90;;
84082;SDS011;74174;52.224;6.878;2023-11-21T12:47:45;25.05;;;9.55;;
84082;SDS011;74174;52.224;6.878;2023-11-21T12:50:15;24.80;;;9.82;;
84082;SDS011;74174;52.224;6.878;2023-11-21T12:52:46;20.13;;;9.05;;
84082;SDS011;74174;52.224;6.878;2023-11-21T12:55:22;24.77;;;10.30;;
84082;SDS011;74174;52.224;6.878;2023-11-21T12:57:49;24.48;;;9.75;;
84082;SDS011;74174;52.224;6.878;2023-11-21T13:00:17;19.67;;;8.85;;
84082;SDS011;74174;52.224;6.878;2023-11-21T13:02:56;28.75;;;10.35;;
84082;SDS011;74174;52.224;6.878;2023-11-21T13:05:26;21.85;;;9.52;;
84082;SDS011;74174;52.224;6.878;2023-11-21T13:07:53;26.42;;;10.68;;
84082;SDS011;74174;52.224;6.878;2023-11-21T13:10:23;24.85;;;11.05;;
84082;SDS011;74174;52.224;6.878;2023-11-21T13:12:59;25.02;;;10.48;;
84082;SDS011;74174;52.224;6.878;2023-11-21T13:15:26;25.25;;;10.98;;
84082;SDS011;74174;52.224;6.878;2023-11-21T13:17:52;23.67;;;10.75;;
84082;SDS011;74174;52.224;6.878;2023-11-21T13:20:19;24.45;;;11.05;;
84082;SDS011;74174;52.224;6.878;2023-11-21T13:22:52;22.75;;;9.50;;
84082;SDS011;74174;52.224;6.878;2023-11-21T13:25:23;23.67;;;10.45;;
84082;SDS011;74174;52.224;6.878;2023-11-21T13:27:49;21.27;;;9.68;;
84082;SDS011;74174;52.224;6.878;2023-11-21T13:30:15;17.95;;;9.02;;
84082;SDS011;74174;52.224;6.878;2023-11-21T13:32:45;16.88;;;8.25;;
84082;SDS011;74174;52.224;6.878;2023-11-21T13:35:16;16.15;;;7.95;;
84082;SDS011;74174;52.224;6.878;2023-11-21T13:37:55;17.88;;;8.77;;
84082;SDS011;74174;52.224;6.878;2023-11-21T13:40:22;15.70;;;7.80;;
84082;SDS011;74174;52.224;6.878;2023-11-21T13:42:55;16.52;;;8.48;;
84082;SDS011;74174;52.224;6.878;2023-11-21T13:45:24;13.73;;;7.05;;
84082;SDS011;74174;52.224;6.878;2023-11-21T13:47:51;14.73;;;7.53;;
84082;SDS011;74174;52.224;6.878;2023-11-21T13:50:20;16.08;;;8.05;;
84082;SDS011;74174;52.224;6.878;2023-11-21T13:52:49;13.88;;;7.00;;
84082;SDS011;74174;52.224;6.878;2023-11-21T13:55:18;17.67;;;9.38;;
84082;SDS011;74174;52.224;6.878;2023-11-21T13:57:44;14.55;;;8.93;;
84082;SDS011;74174;52.224;6.878;2023-11-21T14:00:14;13.60;;;7.07;;
84082;SDS011;74174;52.224;6.878;2023-11-21T14:02:59;13.50;;;7.05;;
84082;SDS011;74174;52.224;6.878;2023-11-21T14:05:26;12.65;;;6.60;;
84082;SDS011;74174;52.224;6.878;2023-11-21T14:07:56;10.77;;;6.57;;
84082;SDS011;74174;52.224;6.878;2023-11-21T14:10:28;13.82;;;6.15;;
84082;SDS011;74174;52.224;6.878;2023-11-21T14:13:05;12.80;;;6.30;;
84082;SDS011;74174;52.224;6.878;2023-11-21T14:15:31;11.10;;;6.05;;
84082;SDS011;74174;52.224;6.878;2023-11-21T14:17:58;10.75;;;5.03;;
84082;SDS011;74174;52.224;6.878;2023-11-21T14:20:25;10.82;;;5.25;;
84082;SDS011;74174;52.224;6.878;2023-11-21T14:22:50;8.52;;;4.20;;
84082;SDS011;74174;52.224;6.878;2023-11-21T14:25:16;11.77;;;5.47;;
84082;SDS011;74174;52.224;6.878;2023-11-21T14:27:42;12.25;;;6.00;;
84082;SDS011;74174;52.224;6.878;2023-11-21T14:30:08;8.93;;;4.97;;
84082;SDS011;74174;52.224;6.878;2023-11-21T14:32:37;11.00;;;5.30;;
84082;SDS011;74174;52.224;6.878;2023-11-21T14:35:03;9.95;;;4.68;;
84082;SDS011;74174;52.224;6.878;2023-11-21T14:37:29;11.65;;;5.40;;
84082;SDS011;74174;52.224;6.878;2023-11-21T14:39:54;10.40;;;5.50;;
84082;SDS011;74174;52.224;6.878;2023-11-21T14:42:20;18.30;;;6.75;;
84082;SDS011;74174;52.224;6.878;2023-11-21T14:44:50;13.15;;;6.25;;